createdAt,value
2023-05-16T00:02:20.251Z,3.80
2023-05-16T00:12:21.805Z,3.90
2023-05-16T00:22:23.464Z,4.40
2023-05-16T00:32:25.049Z,4.33
2023-05-16T00:42:26.587Z,5.45
2023-05-16T00:52:28.376Z,4.50
2023-05-16T01:02:30.099Z,5.63
2023-05-16T01:12:45.922Z,5.93
2023-05-16T01:22:54.415Z,7.00
2023-05-16T01:32:55.937Z,7.68
2023-05-16T01:43:00.455Z,7.70
2023-05-16T01:53:16.956Z,7.80
2023-05-16T02:03:18.477Z,7.97
2023-05-16T02:13:19.971Z,8.23
2023-05-16T02:23:21.453Z,8.57
2023-05-16T02:33:23.454Z,9.53
2023-05-16T02:43:25.003Z,8.47
2023-05-16T02:53:26.441Z,9.23
2023-05-16T03:03:28.053Z,8.63
2023-05-16T03:13:29.572Z,6.22
2023-05-16T03:23:31.184Z,3.80
2023-05-16T03:33:32.662Z,2.70
2023-05-16T03:43:34.144Z,1.40
2023-05-16T03:53:38.047Z,1.70
2023-05-16T04:03:39.506Z,0.73
2023-05-16T04:13:41.022Z,0.83
2023-05-16T04:23:46.878Z,0.43
2023-05-16T04:33:48.957Z,0.35
2023-05-16T04:43:50.568Z,0.80
2023-05-16T04:53:52.059Z,0.80
2023-05-16T05:03:53.646Z,1.00
2023-05-16T05:13:55.195Z,0.80
2023-05-16T05:23:56.704Z,1.15
2023-05-16T05:33:58.219Z,1.00
2023-05-16T05:43:59.739Z,1.30
2023-05-16T05:54:02.167Z,0.90
2023-05-16T06:04:03.835Z,1.00
2023-05-16T06:14:05.349Z,0.95
2023-05-16T06:24:07.133Z,1.23
2023-05-16T06:34:08.766Z,0.98
2023-05-16T06:44:10.314Z,1.10
2023-05-16T06:54:11.841Z,1.30
2023-05-16T07:04:13.407Z,1.42
2023-05-16T07:14:15.058Z,0.93
2023-05-16T07:24:16.597Z,1.27
2023-05-16T07:34:18.136Z,0.93
2023-05-16T07:44:19.670Z,1.23
2023-05-16T07:54:21.219Z,0.90
2023-05-16T08:04:22.856Z,1.30
2023-05-16T08:14:24.379Z,1.60
2023-05-16T08:24:25.953Z,1.50
2023-05-16T08:34:27.517Z,1.50
2023-05-16T08:44:29.110Z,1.25
2023-05-16T08:54:30.828Z,1.40
2023-05-16T09:04:32.705Z,1.38
2023-05-16T09:14:34.380Z,1.53
2023-05-16T09:24:43.595Z,1.27
2023-05-16T09:34:46.937Z,0.90
2023-05-16T09:44:54.596Z,1.90
2023-05-16T09:54:56.145Z,1.83
2023-05-16T10:04:58.817Z,2.10
2023-05-16T10:15:05.508Z,1.50
2023-05-16T10:25:23.100Z,1.70
2023-05-16T10:35:24.833Z,1.70
2023-05-16T10:45:27.340Z,2.40
2023-05-16T10:55:30.472Z,2.60
2023-05-16T11:05:32.228Z,2.40
2023-05-16T11:15:33.964Z,2.75
2023-05-16T11:25:36.572Z,3.33
2023-05-16T11:35:38.177Z,3.40
2023-05-16T11:45:39.937Z,3.87
2023-05-16T11:55:42.585Z,3.90
2023-05-16T12:05:54.520Z,4.18
2023-05-16T12:15:56.202Z,3.87
2023-05-16T12:25:57.721Z,3.67
2023-05-16T12:35:59.304Z,3.67
2023-05-16T12:46:01.012Z,4.30
2023-05-16T12:56:02.624Z,4.75
2023-05-16T13:06:04.210Z,5.17
2023-05-16T13:16:06.180Z,5.20
2023-05-16T13:26:07.735Z,5.23
2023-05-16T13:36:09.773Z,5.27
2023-05-16T13:46:11.681Z,5.18
2023-05-16T13:56:13.282Z,5.50
2023-05-16T14:06:14.853Z,5.40
2023-05-16T14:16:16.507Z,5.63
2023-05-16T14:26:18.082Z,6.30
2023-05-16T14:36:19.677Z,7.20
2023-05-16T14:46:21.341Z,7.40
2023-05-16T14:56:25.289Z,8.15
2023-05-16T15:06:29.186Z,7.87
2023-05-16T15:16:30.883Z,7.20
2023-05-16T15:26:32.459Z,7.18
2023-05-16T15:36:34.672Z,6.60
2023-05-16T15:46:36.343Z,4.88
2023-05-16T15:56:37.971Z,4.30
2023-05-16T16:06:39.554Z,4.30
2023-05-16T16:16:41.324Z,4.40
2023-05-16T16:26:43.285Z,3.50
2023-05-16T16:36:44.818Z,1.95
2023-05-16T16:46:46.438Z,1.53
2023-05-16T16:56:48.179Z,1.37
2023-05-16T17:06:49.732Z,0.68
2023-05-16T17:16:51.256Z,1.10
2023-05-16T17:26:52.770Z,1.65
2023-05-16T17:36:56.205Z,1.50
2023-05-16T17:46:57.779Z,1.00
2023-05-16T17:56:59.456Z,0.90
2023-05-16T18:07:01.086Z,1.50
2023-05-16T18:17:02.646Z,2.17
2023-05-16T18:27:04.414Z,1.50
2023-05-16T18:37:05.964Z,3.10
2023-05-16T18:47:09.933Z,1.25
2023-05-16T18:57:11.482Z,3.50
2023-05-16T19:07:14.300Z,2.28
2023-05-16T19:17:15.807Z,0.80
2023-05-16T19:27:17.550Z,1.10
2023-05-16T19:37:19.226Z,1.30
2023-05-16T19:47:20.767Z,1.13
2023-05-16T19:57:22.357Z,1.10
2023-05-16T20:07:23.919Z,1.07
2023-05-16T20:17:25.526Z,1.23
2023-05-16T20:27:27.067Z,1.25
2023-05-16T20:37:28.600Z,1.53
2023-05-16T20:47:30.167Z,1.55
2023-05-16T20:57:31.721Z,2.93
2023-05-16T21:07:33.270Z,1.90
2023-05-16T21:17:34.856Z,1.90
2023-05-16T21:27:39.034Z,2.00
2023-05-16T21:37:40.576Z,1.60
2023-05-16T21:47:43.006Z,1.50
2023-05-16T21:57:44.568Z,1.90
2023-05-16T22:07:46.422Z,1.27
2023-05-16T22:17:48.048Z,1.33
2023-05-16T22:27:52.448Z,0.68
2023-05-16T22:37:54.043Z,0.90
2023-05-16T22:47:55.615Z,0.80
2023-05-16T22:57:57.232Z,0.63
2023-05-16T23:07:58.817Z,0.50
2023-05-16T23:18:00.400Z,0.30
2023-05-16T23:28:02.031Z,0.23
2023-05-16T23:38:03.572Z,0.27
2023-05-16T23:48:05.209Z,0.10
2023-05-16T23:58:06.795Z,0.30
